Pays
Station

 

Conditions  météo  pour  West Palm Beach, Palm Beach International Airport  -  Etats-Unis    Etats-Unis

  
19 °C
    
 
 

METAR pour West Palm Beach, Palm Beach International Airport :

KPBI 212153Z 01011KT 10SM SCT035 BKN046 19/12 A3025 RMK AO2 SLP241 T01940117 $

 

Voici le bulletin pour West Palm Beach, Palm Beach International Airport - Etats-Unis.
 
Le bulletin a été fait il y a 5 minutes, à 21:53 UTC .
Le vent soufflait à la vitesse de 5.7 mètres par seconde de Nord (010°).
 
La température était de 19 °C, avec un point de rosée à 12 °C.
La pression atmosphérique était de 1024 hPa.
L'humidité relative était de 63.8%.
 
Il y avait 3 à 4/8ème de nébulosité à une hauteur de 1067 mètres et 5 à 7/8ème de nébulosité à une hauteur de 1402 mètres.
 
La visibilité globale était de 16.1 kilomètres.
 

 
 
 

Pays :   A   B   C   D   E   F   G   H   I   J   K   L   M   N   O   P   Q   R   S   T   U   V   W   Y   Z

 

Partenaires :  Info Météo avec Met'info
Météo Marine avec MeteoMarine.net
Infos Site  |  Infos Légales  |  Crédits  |  Confidentialité
Contactez-nous  |  Ajouter aux favoris
© 2013-2019 METAR - Tous droits réservés